KACV/ACV METAR and TAF weather

Enter ICAO airport designator
Station Type Date Time Source
KACV METAR 2019/12/08 14:13 UTC NOAA

KACV 081413Z AUTO 35003KT 3SM BR OVC003 11/10 A3000 RMK AO2 T01110100


Station Type Date Time Source
KACV Decoded METAR 2019/12/08 14:13 UTC NOAA

ARCATA/EUREKA ARCATA AIRPORT, CA, United States (KACV) 40-59N 124-06W 67M
Dec 08, 2019 - 09:13 AM EST / 2019.12.08 1413 UTC
Wind: from the N (350 degrees) at 3 MPH (3 KT):0
Visibility: 3 mile(s):0
Sky conditions: overcast
Weather: mist
Temperature: 52.0 F (11.1 C)
Dew Point: 50.0 F (10.0 C)
Relative Humidity: 92%
Pressure (altimeter): 30 in. Hg (1015 hPa)
ob: KACV 081413Z AUTO 35003KT 3SM BR OVC003 11/10 A3000 RMK AO2 T01110100
cycle: 14

Station Type Date Time Source
KACV TAF 2019/12/08 12:36 UTC NOAA

TAF KACV 081135Z 0812/0912 33007KT 6SM BR OVC010
FM081700 29004KT 6SM BR BKN015
FM081930 31007KT P6SM SCT020
FM090300 01002KT 3SM BR BKN007

Example: see airport list